createdAt,value
2022-08-31T00:01:37.741Z,7.47
2022-08-31T00:04:06.113Z,7.38
2022-08-31T00:06:35.945Z,7.07
2022-08-31T00:09:05.843Z,8.40
2022-08-31T00:11:36.256Z,8.35
2022-08-31T00:14:13.389Z,7.45
2022-08-31T00:16:44.525Z,7.70
2022-08-31T00:19:12.557Z,7.03
2022-08-31T00:21:40.464Z,7.95
2022-08-31T00:24:08.595Z,7.47
2022-08-31T00:26:36.850Z,6.20
2022-08-31T00:29:05.633Z,7.40
2022-08-31T00:34:00.925Z,6.78
2022-08-31T00:36:28.701Z,6.22
2022-08-31T00:38:57.206Z,6.30
2022-08-31T00:41:30.401Z,5.97
2022-08-31T00:44:03.182Z,6.90
2022-08-31T00:46:42.186Z,7.10
2022-08-31T00:49:19.351Z,7.00
2022-08-31T00:52:02.275Z,7.20
2022-08-31T00:54:44.370Z,6.80
2022-08-31T00:57:13.605Z,6.35
2022-08-31T00:59:44.565Z,5.88
2022-08-31T01:02:12.185Z,6.45
2022-08-31T01:04:40.127Z,7.07
2022-08-31T01:07:08.937Z,7.15
2022-08-31T01:09:41.329Z,6.70
2022-08-31T01:12:24.353Z,7.10
2022-08-31T01:14:52.375Z,6.63
2022-08-31T01:17:22.166Z,8.15
2022-08-31T01:20:12.513Z,8.73
2022-08-31T01:22:56.184Z,8.35
2022-08-31T01:25:24.488Z,9.68
2022-08-31T01:28:04.727Z,8.52
2022-08-31T01:30:33.295Z,10.35
2022-08-31T01:33:01.331Z,9.02
2022-08-31T01:35:29.737Z,9.57
2022-08-31T01:37:58.839Z,9.38
2022-08-31T01:40:38.003Z,8.55
2022-08-31T01:43:05.902Z,9.38
2022-08-31T01:45:33.383Z,9.30
2022-08-31T01:48:02.108Z,9.68
2022-08-31T01:50:30.208Z,9.67
2022-08-31T01:52:58.857Z,9.98
2022-08-31T01:55:27.120Z,11.23
2022-08-31T01:57:58.846Z,10.68
2022-08-31T02:01:03.145Z,9.52
2022-08-31T02:03:43.938Z,9.30
2022-08-31T02:06:13.887Z,9.93
2022-08-31T02:08:41.913Z,9.93
2022-08-31T02:11:09.794Z,10.13
2022-08-31T02:13:37.805Z,10.57
2022-08-31T02:16:06.517Z,11.38
2022-08-31T02:18:35.998Z,11.18
2022-08-31T02:21:05.719Z,11.52
2022-08-31T02:23:33.519Z,10.65
2022-08-31T02:26:01.496Z,10.95
2022-08-31T02:28:29.421Z,11.25
2022-08-31T02:30:57.156Z,11.02
2022-08-31T02:33:25.612Z,11.15
2022-08-31T02:35:53.850Z,11.77
2022-08-31T02:38:24.978Z,12.00
2022-08-31T02:40:54.643Z,10.85
2022-08-31T02:43:24.559Z,11.02
2022-08-31T02:45:54.653Z,12.35
2022-08-31T02:48:27.939Z,11.40
2022-08-31T02:51:02.617Z,12.15
2022-08-31T02:53:30.375Z,11.05
2022-08-31T02:55:57.964Z,11.02
2022-08-31T02:58:25.533Z,12.75
2022-08-31T03:00:54.187Z,14.27
2022-08-31T03:03:22.063Z,14.82
2022-08-31T03:05:50.446Z,15.88
2022-08-31T03:08:18.810Z,15.88
2022-08-31T03:10:49.680Z,14.65
2022-08-31T03:13:18.487Z,14.10
2022-08-31T03:15:46.584Z,15.32
2022-08-31T03:18:17.165Z,13.55
2022-08-31T03:20:44.851Z,14.05
2022-08-31T03:23:12.850Z,14.80
2022-08-31T03:25:41.105Z,15.02
2022-08-31T03:28:08.971Z,14.50
2022-08-31T03:30:41.476Z,13.88
2022-08-31T03:33:11.908Z,14.02
2022-08-31T03:35:44.081Z,14.55
2022-08-31T03:38:15.962Z,14.20
2022-08-31T03:40:45.153Z,15.70
2022-08-31T03:43:14.785Z,14.55
2022-08-31T03:45:44.162Z,15.90
2022-08-31T03:48:13.283Z,17.05
2022-08-31T03:50:44.229Z,15.48
2022-08-31T03:53:23.154Z,14.05
2022-08-31T03:56:01.731Z,15.35
2022-08-31T03:58:32.658Z,14.10
2022-08-31T04:01:01.576Z,14.15
2022-08-31T04:04:01.992Z,13.73
2022-08-31T04:07:01.424Z,14.05
2022-08-31T04:09:49.338Z,13.85
2022-08-31T04:12:43.076Z,14.73
2022-08-31T04:15:30.818Z,13.52
2022-08-31T04:18:30.971Z,14.82
2022-08-31T04:20:58.746Z,14.80
2022-08-31T04:23:29.436Z,14.90
2022-08-31T04:25:58.950Z,14.02
2022-08-31T04:28:27.061Z,14.15
2022-08-31T04:30:56.104Z,15.05
2022-08-31T04:33:24.018Z,15.20
2022-08-31T04:35:52.452Z,13.60
2022-08-31T04:38:20.286Z,15.30
2022-08-31T04:40:48.483Z,14.55
2022-08-31T04:43:20.170Z,14.23
2022-08-31T04:45:52.145Z,14.57
2022-08-31T04:48:19.721Z,14.48
2022-08-31T04:50:50.676Z,14.30
2022-08-31T04:53:18.670Z,13.85
2022-08-31T04:55:46.294Z,15.05
2022-08-31T04:58:14.256Z,15.57
2022-08-31T05:00:45.146Z,14.23
2022-08-31T05:03:15.992Z,14.60
2022-08-31T05:05:47.090Z,14.35
2022-08-31T05:08:14.988Z,14.60
2022-08-31T05:10:44.561Z,13.77
2022-08-31T05:13:12.775Z,15.90
2022-08-31T05:15:43.728Z,14.70
2022-08-31T05:18:14.950Z,16.02
2022-08-31T05:20:49.533Z,15.43
2022-08-31T05:23:19.082Z,16.00
2022-08-31T05:25:47.102Z,16.65
2022-08-31T05:28:17.835Z,15.82
2022-08-31T05:30:45.712Z,16.08
2022-08-31T05:33:29.467Z,16.35
2022-08-31T05:36:00.992Z,15.52
2022-08-31T05:38:28.859Z,16.25
2022-08-31T05:40:58.736Z,17.10
2022-08-31T05:43:27.709Z,15.93
2022-08-31T05:45:58.699Z,13.07
2022-08-31T05:48:29.878Z,14.48
2022-08-31T05:51:02.791Z,16.42
2022-08-31T05:53:31.805Z,15.65
2022-08-31T05:56:10.631Z,15.60
2022-08-31T05:58:40.855Z,17.80
2022-08-31T06:01:30.843Z,17.10
2022-08-31T06:04:08.833Z,15.25
2022-08-31T06:06:37.370Z,14.30
2022-08-31T06:09:07.736Z,14.93
2022-08-31T06:11:38.372Z,15.20
2022-08-31T06:14:06.625Z,12.20
2022-08-31T06:16:36.613Z,13.18
2022-08-31T06:19:07.319Z,14.48
2022-08-31T06:21:49.766Z,14.57
2022-08-31T06:24:22.637Z,13.82
2022-08-31T06:26:58.568Z,18.08
2022-08-31T06:29:34.798Z,18.02
2022-08-31T06:32:11.098Z,17.95
2022-08-31T06:34:50.148Z,14.48
2022-08-31T06:37:40.930Z,20.33
2022-08-31T06:40:40.680Z,13.70
2022-08-31T06:43:27.740Z,13.88
2022-08-31T06:46:00.736Z,16.00
2022-08-31T06:48:48.401Z,13.38
2022-08-31T06:51:16.589Z,15.50
2022-08-31T06:53:45.407Z,17.00
2022-08-31T06:56:35.145Z,14.57
2022-08-31T06:59:28.218Z,14.65
2022-08-31T07:02:15.307Z,13.77
2022-08-31T07:04:43.123Z,15.15
2022-08-31T07:07:11.646Z,14.85
2022-08-31T07:09:42.132Z,15.13
2022-08-31T07:12:11.249Z,14.90
2022-08-31T07:14:38.948Z,14.93
2022-08-31T07:17:08.391Z,15.02
2022-08-31T07:19:36.026Z,14.43
2022-08-31T07:22:09.290Z,15.18
2022-08-31T07:24:42.910Z,15.13
2022-08-31T07:27:16.598Z,14.82
2022-08-31T07:30:04.754Z,15.38
2022-08-31T07:32:34.546Z,16.45
2022-08-31T07:35:03.045Z,14.52
2022-08-31T07:37:50.288Z,14.23
2022-08-31T07:40:41.149Z,14.75
2022-08-31T07:43:11.713Z,16.80
2022-08-31T07:45:42.261Z,17.00
2022-08-31T07:48:15.472Z,16.95
2022-08-31T07:50:57.572Z,15.73
2022-08-31T07:53:48.438Z,17.42
2022-08-31T07:56:34.102Z,17.40
2022-08-31T07:59:11.386Z,15.35
2022-08-31T08:01:41.362Z,15.55
2022-08-31T08:04:20.122Z,14.98
2022-08-31T08:07:12.946Z,15.23
2022-08-31T08:10:01.154Z,14.37
2022-08-31T08:13:04.227Z,13.32
2022-08-31T08:15:52.549Z,14.75
2022-08-31T08:35:02.207Z,10.20
2022-08-31T08:37:47.792Z,10.55
2022-08-31T08:40:42.445Z,10.35
2022-08-31T08:43:18.272Z,12.02
2022-08-31T08:45:52.898Z,11.15
2022-08-31T08:48:32.768Z,11.80
2022-08-31T08:51:04.375Z,12.38
2022-08-31T08:53:46.486Z,13.43
2022-08-31T08:56:35.533Z,13.68
2022-08-31T08:59:09.923Z,13.00
2022-08-31T09:01:44.036Z,13.27
2022-08-31T09:04:26.020Z,14.43
2022-08-31T09:07:31.021Z,11.57
2022-08-31T09:10:39.136Z,13.30
2022-08-31T09:13:31.853Z,11.35
2022-08-31T09:16:48.179Z,9.95
2022-08-31T09:19:19.500Z,7.93
2022-08-31T09:21:57.154Z,7.47
2022-08-31T09:24:29.178Z,6.07
2022-08-31T09:27:50.951Z,5.15
2022-08-31T09:30:45.091Z,8.50
2022-08-31T09:33:33.808Z,7.05
2022-08-31T09:36:22.542Z,11.80
2022-08-31T09:38:50.457Z,12.82
2022-08-31T09:41:30.738Z,10.40
2022-08-31T09:44:35.082Z,10.40
2022-08-31T09:47:27.242Z,9.77
2022-08-31T09:49:57.785Z,9.00
2022-08-31T09:52:47.670Z,9.20
2022-08-31T09:55:24.880Z,11.13
2022-08-31T09:58:04.401Z,10.63
2022-08-31T10:00:42.769Z,10.00
2022-08-31T10:03:21.014Z,10.15
2022-08-31T10:05:54.605Z,6.82
2022-08-31T10:08:28.239Z,9.00
2022-08-31T10:10:58.691Z,7.03
2022-08-31T10:13:57.813Z,7.60
2022-08-31T10:16:30.533Z,8.18
2022-08-31T10:19:22.559Z,6.82
2022-08-31T10:21:57.024Z,5.60
2022-08-31T10:24:33.544Z,5.72
2022-08-31T10:27:32.310Z,4.93
2022-08-31T10:30:06.884Z,4.50
2022-08-31T10:32:44.032Z,4.57
2022-08-31T10:35:37.560Z,4.78
2022-08-31T10:38:40.837Z,4.53
2022-08-31T10:41:17.329Z,4.32
2022-08-31T10:44:18.278Z,3.97
2022-08-31T10:46:50.424Z,3.63
2022-08-31T10:49:20.819Z,2.90
2022-08-31T10:52:29.409Z,3.40
2022-08-31T10:55:30.617Z,3.38
2022-08-31T10:58:44.276Z,3.63
2022-08-31T11:01:44.390Z,3.00
2022-08-31T11:04:59.253Z,3.78
2022-08-31T11:07:58.101Z,3.85
2022-08-31T11:10:57.316Z,4.88
2022-08-31T11:14:14.852Z,4.25
2022-08-31T11:17:19.049Z,5.38
2022-08-31T11:20:08.835Z,4.32
2022-08-31T11:23:14.535Z,4.35
2022-08-31T11:26:07.848Z,4.50
2022-08-31T11:28:48.274Z,4.07
2022-08-31T11:31:25.365Z,3.92
2022-08-31T11:34:15.696Z,4.72
2022-08-31T11:36:54.819Z,4.30
2022-08-31T11:39:35.655Z,11.50
2022-08-31T11:42:22.691Z,5.28
2022-08-31T11:45:07.434Z,3.63
2022-08-31T11:47:42.170Z,4.82
2022-08-31T11:51:03.482Z,4.13
2022-08-31T11:53:44.261Z,3.95
2022-08-31T11:56:14.497Z,4.05
2022-08-31T11:58:53.352Z,3.05
2022-08-31T12:01:35.799Z,3.65
2022-08-31T12:04:04.026Z,3.40
2022-08-31T12:06:37.285Z,3.15
2022-08-31T12:09:38.221Z,3.05
2022-08-31T12:12:57.235Z,3.22
2022-08-31T12:15:36.744Z,2.50
2022-08-31T12:18:17.054Z,2.35
2022-08-31T12:21:20.302Z,2.25
2022-08-31T12:23:56.316Z,2.95
2022-08-31T12:26:58.188Z,4.57
2022-08-31T12:29:43.943Z,2.58
2022-08-31T12:32:40.492Z,2.08
2022-08-31T12:35:18.076Z,2.05
2022-08-31T12:38:04.866Z,2.33
2022-08-31T12:40:48.213Z,2.33
2022-08-31T12:43:18.743Z,2.30
2022-08-31T12:45:58.335Z,2.50
2022-08-31T12:49:02.885Z,2.45
2022-08-31T12:52:08.587Z,2.60
2022-08-31T12:54:47.888Z,3.00
2022-08-31T12:58:03.934Z,2.63
2022-08-31T13:00:39.473Z,2.72
2022-08-31T13:03:29.279Z,12.93
2022-08-31T13:06:05.843Z,5.32
2022-08-31T13:08:46.416Z,4.38
2022-08-31T13:11:35.282Z,3.03
2022-08-31T13:14:20.742Z,3.90
2022-08-31T13:16:53.610Z,4.90
2022-08-31T13:19:25.918Z,4.47
2022-08-31T13:22:07.642Z,3.60
2022-08-31T13:24:42.036Z,4.22
2022-08-31T13:29:59.419Z,4.07
2022-08-31T13:32:32.984Z,4.20
2022-08-31T13:35:11.649Z,4.28
2022-08-31T13:38:05.364Z,4.15
2022-08-31T13:40:39.716Z,3.72
2022-08-31T13:43:10.792Z,3.88
2022-08-31T13:45:57.855Z,3.95
2022-08-31T13:48:40.627Z,4.68
2022-08-31T13:51:17.168Z,3.80
2022-08-31T13:53:53.992Z,3.30
2022-08-31T13:56:52.499Z,4.25
2022-08-31T13:59:26.768Z,3.97
2022-08-31T14:02:18.658Z,3.10
2022-08-31T14:04:58.055Z,3.72
2022-08-31T14:07:28.493Z,3.70
2022-08-31T14:10:15.107Z,10.85
2022-08-31T14:12:47.561Z,7.18
2022-08-31T14:15:17.554Z,3.30
2022-08-31T14:21:24.130Z,2.63
2022-08-31T14:24:01.434Z,4.20
2022-08-31T14:26:37.121Z,3.95
2022-08-31T14:29:12.474Z,4.20
2022-08-31T14:31:55.051Z,4.38
2022-08-31T14:34:28.170Z,4.35
2022-08-31T14:37:06.472Z,3.60
2022-08-31T14:39:36.165Z,3.22
2022-08-31T14:42:18.707Z,3.28
2022-08-31T14:44:58.149Z,4.22
2022-08-31T14:47:33.040Z,3.33
2022-08-31T14:50:09.305Z,2.35
2022-08-31T14:52:41.678Z,2.47
2022-08-31T14:55:11.306Z,2.70
2022-08-31T14:57:45.693Z,2.40
2022-08-31T15:00:21.941Z,2.33
2022-08-31T15:02:53.531Z,2.30
2022-08-31T15:05:24.835Z,2.65
2022-08-31T15:07:55.107Z,2.05
2022-08-31T15:10:25.701Z,2.35
2022-08-31T15:12:54.211Z,2.55
2022-08-31T15:15:21.980Z,2.83
2022-08-31T15:17:51.765Z,2.30
2022-08-31T15:20:22.948Z,2.10
2022-08-31T15:22:50.993Z,2.45
2022-08-31T15:25:20.718Z,2.50
2022-08-31T15:27:49.456Z,5.30
2022-08-31T15:32:48.798Z,3.08
2022-08-31T15:35:23.474Z,2.85
2022-08-31T15:37:58.950Z,2.90
2022-08-31T15:40:35.512Z,3.08
2022-08-31T15:43:09.545Z,2.67
2022-08-31T15:45:37.679Z,2.67
2022-08-31T15:48:24.000Z,2.65
2022-08-31T15:51:00.447Z,3.55
2022-08-31T15:53:29.485Z,3.03
2022-08-31T15:56:07.676Z,3.30
2022-08-31T15:58:39.058Z,2.70
2022-08-31T16:01:14.071Z,5.03
2022-08-31T16:03:48.695Z,9.65
2022-08-31T16:06:16.542Z,3.20
2022-08-31T16:08:44.032Z,2.70
2022-08-31T16:11:12.405Z,2.57
2022-08-31T16:13:49.219Z,2.60
2022-08-31T16:16:20.406Z,3.63
2022-08-31T16:18:51.712Z,2.70
2022-08-31T16:21:21.923Z,2.60
2022-08-31T16:24:01.219Z,2.90
2022-08-31T16:26:32.415Z,3.30
2022-08-31T16:29:02.960Z,2.40
2022-08-31T16:31:31.809Z,2.80
2022-08-31T16:33:59.431Z,3.75
2022-08-31T16:36:28.507Z,3.53
2022-08-31T16:38:57.006Z,4.05
2022-08-31T16:41:30.708Z,3.97
2022-08-31T16:44:21.338Z,3.72
2022-08-31T16:46:49.331Z,5.32
2022-08-31T16:49:36.393Z,4.10
2022-08-31T16:52:09.920Z,5.55
2022-08-31T16:54:45.044Z,5.82
2022-08-31T16:57:19.079Z,4.35
2022-08-31T16:59:48.771Z,4.30
2022-08-31T17:02:18.457Z,4.20
2022-08-31T17:04:54.585Z,4.75
2022-08-31T17:07:24.661Z,5.38
2022-08-31T17:10:07.505Z,4.47
2022-08-31T17:12:38.471Z,5.25
2022-08-31T17:15:08.958Z,6.00
2022-08-31T17:17:36.487Z,5.68
2022-08-31T17:20:05.201Z,4.78
2022-08-31T17:22:33.726Z,4.68
2022-08-31T17:25:04.425Z,5.28
2022-08-31T17:27:35.111Z,5.28
2022-08-31T17:30:07.269Z,4.93
2022-08-31T17:32:39.352Z,6.03
2022-08-31T17:35:18.236Z,4.90
2022-08-31T17:37:47.928Z,5.30
2022-08-31T17:42:44.516Z,6.28
2022-08-31T17:45:13.018Z,6.32
2022-08-31T17:47:40.497Z,6.82
2022-08-31T17:50:08.589Z,7.53
2022-08-31T17:52:36.319Z,6.75
2022-08-31T17:55:04.234Z,6.80
2022-08-31T17:57:31.795Z,6.63
2022-08-31T17:59:59.880Z,6.25
2022-08-31T18:02:34.604Z,6.25
2022-08-31T18:05:11.598Z,6.97
2022-08-31T18:07:41.001Z,6.80
2022-08-31T18:10:10.263Z,7.60
2022-08-31T18:12:41.729Z,6.55
2022-08-31T18:15:12.944Z,6.57
2022-08-31T18:17:40.704Z,7.28
2022-08-31T18:20:09.328Z,7.78
2022-08-31T18:25:05.125Z,6.85
2022-08-31T18:27:32.760Z,7.30
2022-08-31T18:30:01.157Z,8.02
2022-08-31T18:32:34.152Z,6.32
2022-08-31T18:35:06.057Z,4.93
2022-08-31T18:37:33.657Z,3.97
2022-08-31T18:40:19.861Z,4.70
2022-08-31T18:43:06.375Z,4.63
2022-08-31T18:45:39.081Z,3.80
2022-08-31T18:48:24.433Z,3.60
2022-08-31T18:50:55.586Z,3.20
2022-08-31T18:53:27.502Z,3.67
2022-08-31T18:56:10.858Z,4.15
2022-08-31T18:58:40.152Z,3.28
2022-08-31T19:01:10.452Z,8.48
2022-08-31T19:03:39.576Z,4.25
2022-08-31T19:06:08.268Z,4.13
2022-08-31T19:08:36.206Z,3.58
2022-08-31T19:11:08.043Z,3.15
2022-08-31T19:13:36.047Z,3.08
2022-08-31T19:16:14.834Z,3.22
2022-08-31T19:18:44.423Z,3.05
2022-08-31T19:21:25.764Z,3.47
2022-08-31T19:23:55.341Z,3.67
2022-08-31T19:26:27.225Z,3.47
2022-08-31T19:28:56.725Z,3.05
2022-08-31T19:31:27.652Z,3.97
2022-08-31T19:33:57.053Z,4.22
2022-08-31T19:36:27.298Z,4.03
2022-08-31T19:38:56.280Z,3.20
2022-08-31T19:41:26.396Z,3.33
2022-08-31T19:44:07.248Z,3.85
2022-08-31T19:46:39.489Z,3.67
2022-08-31T19:49:11.683Z,4.97
2022-08-31T19:51:51.854Z,4.15
2022-08-31T19:54:21.198Z,5.05
2022-08-31T19:56:49.041Z,4.32
2022-08-31T19:59:20.094Z,4.20
2022-08-31T20:01:53.185Z,3.92
2022-08-31T20:04:26.892Z,4.28
2022-08-31T20:06:55.702Z,4.72
2022-08-31T20:09:25.501Z,4.88
2022-08-31T20:11:56.810Z,4.53
2022-08-31T20:14:24.660Z,4.82
2022-08-31T20:16:52.775Z,4.93
2022-08-31T20:19:25.182Z,4.57
2022-08-31T20:21:55.763Z,4.85
2022-08-31T20:24:26.822Z,5.18
2022-08-31T20:27:01.699Z,5.10
2022-08-31T20:29:38.746Z,5.53
2022-08-31T20:32:08.052Z,5.22
2022-08-31T20:34:37.320Z,4.93
2022-08-31T20:37:05.141Z,5.50
2022-08-31T20:39:35.354Z,4.00
2022-08-31T20:42:03.795Z,5.13
2022-08-31T20:44:35.030Z,4.75
2022-08-31T20:47:26.162Z,5.93
2022-08-31T20:49:56.989Z,5.13
2022-08-31T20:52:31.893Z,5.47
2022-08-31T20:55:03.810Z,5.43
2022-08-31T20:57:33.950Z,4.95
2022-08-31T21:00:06.055Z,4.72
2022-08-31T21:02:34.881Z,4.13
2022-08-31T21:05:33.927Z,5.22
2022-08-31T21:07:57.490Z,4.30
2022-08-31T21:10:36.549Z,4.88
2022-08-31T21:13:10.063Z,5.00
2022-08-31T21:15:46.179Z,4.60
2022-08-31T21:18:19.153Z,4.70
2022-08-31T21:20:47.337Z,4.75
2022-08-31T21:23:15.477Z,4.60
2022-08-31T21:25:45.823Z,4.57
2022-08-31T21:28:17.426Z,4.47
2022-08-31T21:30:49.595Z,4.15
2022-08-31T21:33:18.492Z,4.57
2022-08-31T21:35:46.402Z,4.75
2022-08-31T21:38:14.237Z,3.90
2022-08-31T21:40:50.569Z,3.42
2022-08-31T21:43:19.466Z,3.28
2022-08-31T21:45:48.292Z,3.92
2022-08-31T21:48:25.994Z,5.68
2022-08-31T21:50:54.733Z,4.68
2022-08-31T21:53:28.426Z,5.43
2022-08-31T21:55:56.221Z,5.10
2022-08-31T21:58:23.700Z,4.75
2022-08-31T22:00:51.248Z,4.65
2022-08-31T22:03:21.213Z,4.60
2022-08-31T22:05:49.230Z,5.05
2022-08-31T22:08:17.983Z,4.95
2022-08-31T22:13:13.485Z,5.32
2022-08-31T22:15:42.713Z,6.22
2022-08-31T22:18:58.138Z,5.35
2022-08-31T22:20:59.176Z,7.03
2022-08-31T22:23:28.423Z,5.68
2022-08-31T22:25:56.417Z,6.25
2022-08-31T22:28:27.802Z,6.05
2022-08-31T22:30:56.527Z,5.57
2022-08-31T22:33:24.586Z,6.20
2022-08-31T22:35:52.208Z,6.15
2022-08-31T22:38:20.119Z,6.63
2022-08-31T22:40:50.010Z,6.43
2022-08-31T22:43:18.034Z,6.35
2022-08-31T22:45:48.812Z,6.13
2022-08-31T22:48:17.142Z,5.97
2022-08-31T22:50:44.779Z,6.95
2022-08-31T22:53:12.594Z,5.97
2022-08-31T22:55:41.259Z,6.30
2022-08-31T22:58:09.316Z,6.03
2022-08-31T23:00:37.178Z,6.33
2022-08-31T23:03:05.153Z,6.30
2022-08-31T23:05:32.701Z,6.50
2022-08-31T23:08:00.541Z,7.22
2022-08-31T23:10:28.536Z,7.10
2022-08-31T23:12:57.209Z,6.80
2022-08-31T23:15:26.138Z,6.95
2022-08-31T23:17:53.805Z,6.50
2022-08-31T23:20:24.499Z,6.95
2022-08-31T23:22:55.130Z,6.43
2022-08-31T23:25:24.987Z,6.97
2022-08-31T23:27:53.489Z,6.97
2022-08-31T23:30:24.761Z,6.75
2022-08-31T23:32:53.282Z,7.07
2022-08-31T23:35:22.102Z,6.57
2022-08-31T23:37:50.022Z,7.68
2022-08-31T23:40:17.690Z,7.72
2022-08-31T23:42:45.507Z,6.13
2022-08-31T23:45:13.026Z,7.15
2022-08-31T23:47:40.617Z,7.55
2022-08-31T23:50:10.151Z,6.55
2022-08-31T23:52:41.541Z,6.55
2022-08-31T23:55:11.631Z,6.78
2022-08-31T23:57:40.282Z,6.80
